createdAt,value
2019-01-04T00:00:02.212Z,1011.2
2019-01-04T00:01:12.801Z,1011.23
2019-01-04T00:02:22.854Z,1011.24
2019-01-04T00:03:32.936Z,1011.21
2019-01-04T00:04:42.519Z,1011.23
2019-01-04T00:05:52.595Z,1011.27
2019-01-04T00:07:02.660Z,1011.25
2019-01-04T00:08:12.951Z,1011.19
2019-01-04T00:09:23.006Z,1011.14
2019-01-04T00:10:33.071Z,1011.17
2019-01-04T00:11:42.885Z,1011.19
2019-01-04T00:12:52.977Z,1011.19
2019-01-04T00:14:04.696Z,1011.17
2019-01-04T00:15:14.501Z,1011.18
2019-01-04T00:16:24.568Z,1011.15
2019-01-04T00:17:34.649Z,1011.24
2019-01-04T00:18:44.722Z,1011.22
2019-01-04T00:19:55.888Z,1011.18
2019-01-04T00:21:08.237Z,1011.18
2019-01-04T00:22:18.322Z,1011.21
2019-01-04T00:23:28.383Z,1011.23
2019-01-04T00:24:38.454Z,1011.16
2019-01-04T00:25:48.523Z,1011.26
2019-01-04T00:26:58.352Z,1011.27
2019-01-04T00:28:08.428Z,1011.29
2019-01-04T00:29:18.237Z,1011.31
2019-01-04T00:30:28.305Z,1011.29
2019-01-04T00:31:38.113Z,1011.26
2019-01-04T00:32:48.162Z,1011.3
2019-01-04T00:33:58.217Z,1011.33
2019-01-04T00:35:08.671Z,1011.34
2019-01-04T00:36:18.741Z,1011.32
2019-01-04T00:37:28.801Z,1011.38
2019-01-04T00:38:38.878Z,1011.37
2019-01-04T00:39:48.687Z,1011.42
2019-01-04T00:40:58.761Z,1011.33
2019-01-04T00:42:08.868Z,1011.38
2019-01-04T00:43:18.678Z,1011.4
2019-01-04T00:44:28.757Z,1011.36
2019-01-04T00:45:38.795Z,1011.38
2019-01-04T00:46:48.839Z,1011.41
2019-01-04T00:47:58.914Z,1011.4
2019-01-04T00:49:08.986Z,1011.48
2019-01-04T00:50:18.817Z,1011.44
2019-01-04T00:51:28.889Z,1011.47
2019-01-04T00:52:38.711Z,1011.53
2019-01-04T00:53:48.795Z,1011.45
2019-01-04T00:54:58.838Z,1011.5
2019-01-04T00:56:08.911Z,1011.48
2019-01-04T00:57:18.983Z,1011.51
2019-01-04T00:58:29.054Z,1011.47
2019-01-04T00:59:39.096Z,1011.52
2019-01-04T01:00:49.159Z,1011.55
2019-01-04T01:01:59.219Z,1011.56
2019-01-04T01:03:09.027Z,1011.56
2019-01-04T01:04:18.830Z,1011.54
2019-01-04T01:05:28.371Z,1011.61
2019-01-04T01:06:38.430Z,1011.6
2019-01-04T01:07:48.535Z,1011.62
2019-01-04T01:08:58.337Z,1011.62
2019-01-04T01:10:09.122Z,1011.75
2019-01-04T01:11:19.184Z,1011.75
2019-01-04T01:12:29.296Z,1011.8
2019-01-04T01:13:39.369Z,1011.82
2019-01-04T01:14:49.430Z,1011.86
2019-01-04T01:15:59.241Z,1011.84
2019-01-04T01:17:09.049Z,1011.85
2019-01-04T01:18:19.165Z,1011.86
2019-01-04T01:19:28.187Z,1011.9
2019-01-04T01:20:38.256Z,1011.85
2019-01-04T01:21:48.295Z,1011.84
2019-01-04T01:22:58.342Z,1011.86
2019-01-04T01:24:08.915Z,1011.86
2019-01-04T01:25:18.979Z,1011.84
2019-01-04T01:26:29.058Z,1011.82
2019-01-04T01:27:39.127Z,1011.81
2019-01-04T01:28:48.919Z,1011.8
2019-01-04T01:29:58.721Z,1011.88
2019-01-04T01:31:08.782Z,1011.88
2019-01-04T01:32:18.585Z,1011.88
2019-01-04T01:33:28.634Z,1011.88
2019-01-04T01:34:38.692Z,1011.89
2019-01-04T01:35:48.846Z,1011.88
2019-01-04T01:36:58.637Z,1011.88
2019-01-04T01:38:08.983Z,1011.86
2019-01-04T01:39:18.777Z,1011.85
2019-01-04T01:40:28.857Z,1011.84
2019-01-04T01:41:38.715Z,1011.9
2019-01-04T01:42:48.772Z,1011.84
2019-01-04T01:43:58.833Z,1011.82
2019-01-04T01:45:08.786Z,1011.82
2019-01-04T01:46:18.580Z,1011.79
2019-01-04T01:47:28.638Z,1011.82
2019-01-04T01:48:38.710Z,1011.78
2019-01-04T01:49:48.525Z,1011.76
2019-01-04T01:50:58.315Z,1011.77
2019-01-04T01:52:08.371Z,1011.78
2019-01-04T01:53:18.430Z,1011.73
2019-01-04T01:54:28.237Z,1011.72
2019-01-04T01:55:38.276Z,1011.86
2019-01-04T01:56:48.334Z,1011.75
2019-01-04T01:57:59.444Z,1011.72
2019-01-04T01:59:09.227Z,1011.69
2019-01-04T02:00:19.045Z,1011.71
2019-01-04T02:01:28.867Z,1011.71
2019-01-04T02:02:38.694Z,1011.72
2019-01-04T02:03:48.763Z,1011.67
2019-01-04T02:04:58.817Z,1011.62
2019-01-04T02:06:08.615Z,1011.58
2019-01-04T02:07:18.718Z,1011.61
2019-01-04T02:08:28.790Z,1011.64
2019-01-04T02:09:38.856Z,1011.65
2019-01-04T02:10:48.909Z,1011.61
2019-01-04T02:11:58.969Z,1011.61
2019-01-04T02:13:09.027Z,1011.6
2019-01-04T02:14:19.132Z,1011.68
2019-01-04T02:15:29.276Z,1011.64
2019-01-04T02:16:39.312Z,1011.61
2019-01-04T02:17:49.353Z,1011.62
2019-01-04T02:18:59.163Z,1011.66
2019-01-04T02:20:09.817Z,1011.73
2019-01-04T02:21:19.871Z,1011.69
2019-01-04T02:22:29.688Z,1011.65
2019-01-04T02:23:39.760Z,1011.63
2019-01-04T02:24:49.813Z,1011.66
2019-01-04T02:25:59.862Z,1011.65
2019-01-04T02:27:09.920Z,1011.62
2019-01-04T02:28:20.014Z,1011.66
2019-01-04T02:29:30.074Z,1011.65
2019-01-04T02:30:40.134Z,1011.7
2019-01-04T02:31:49.969Z,1011.75
2019-01-04T02:33:00.033Z,1011.71
2019-01-04T02:34:10.089Z,1011.66
2019-01-04T02:35:20.142Z,1011.71
2019-01-04T02:36:30.186Z,1011.69
2019-01-04T02:37:40.027Z,1011.62
2019-01-04T02:38:50.085Z,1011.69
2019-01-04T02:39:59.875Z,1011.67
2019-01-04T02:41:09.971Z,1011.64
2019-01-04T02:42:20.038Z,1011.66
2019-01-04T02:43:30.112Z,1011.73
2019-01-04T02:44:40.215Z,1011.74
2019-01-04T02:45:50.261Z,1011.73
2019-01-04T02:47:00.375Z,1011.72
2019-01-04T02:48:10.447Z,1011.76
2019-01-04T02:49:20.516Z,1011.81
2019-01-04T02:50:30.312Z,1011.83
2019-01-04T02:51:40.468Z,1011.79
2019-01-04T02:52:50.587Z,1011.8
2019-01-04T02:54:01.838Z,1011.76
2019-01-04T02:55:11.885Z,1011.79
2019-01-04T02:56:21.936Z,1011.75
2019-01-04T02:57:32.080Z,1011.75
2019-01-04T02:58:42.152Z,1011.77
2019-01-04T02:59:52.211Z,1011.79
2019-01-04T03:01:02.161Z,1011.78
2019-01-04T03:02:12.231Z,1011.8
2019-01-04T03:34:51.366Z,1011.57
2019-01-04T03:36:02.974Z,1011.53
2019-01-04T03:37:13.011Z,1011.55
2019-01-04T03:38:23.081Z,1011.52
2019-01-04T03:39:32.918Z,1011.49
2019-01-04T03:40:42.745Z,1011.47
2019-01-04T03:41:52.802Z,1011.47
2019-01-04T03:43:02.843Z,1011.45
2019-01-04T03:44:12.908Z,1011.5
2019-01-04T03:45:22.708Z,1011.42
2019-01-04T03:46:32.887Z,1011.48
2019-01-04T03:47:42.957Z,1011.46
2019-01-04T03:48:53.022Z,1011.41
2019-01-04T03:50:03.098Z,1011.45
2019-01-04T03:51:12.889Z,1011.51
2019-01-04T03:52:22.740Z,1011.44
2019-01-04T03:53:32.815Z,1011.44
2019-01-04T03:54:42.889Z,1011.48
2019-01-04T03:55:52.946Z,1011.46
2019-01-04T03:57:05.012Z,1011.51
2019-01-04T03:58:14.584Z,1011.46
2019-01-04T03:59:24.630Z,1011.52
2019-01-04T04:00:34.695Z,1011.48
2019-01-04T04:01:44.241Z,1011.49
2019-01-04T04:02:54.057Z,1011.55
2019-01-04T04:04:03.873Z,1011.49
2019-01-04T04:05:13.931Z,1011.47
2019-01-04T04:06:23.990Z,1011.58
2019-01-04T04:07:33.798Z,1011.55
2019-01-04T04:08:43.872Z,1011.44
2019-01-04T04:09:53.741Z,1011.47
2019-01-04T04:11:03.804Z,1011.51
2019-01-04T04:12:13.872Z,1011.57
2019-01-04T04:13:23.918Z,1011.6
2019-01-04T04:14:33.981Z,1011.71
2019-01-04T04:15:44.040Z,1011.67
2019-01-04T04:16:54.116Z,1011.7
2019-01-04T04:18:04.329Z,1011.64
2019-01-04T04:19:14.390Z,1011.69
2019-01-04T04:20:24.454Z,1011.73
2019-01-04T04:21:34.513Z,1011.69
2019-01-04T04:22:44.577Z,1011.71
2019-01-04T04:23:54.627Z,1011.72
2019-01-04T04:25:04.695Z,1011.73
2019-01-04T04:26:14.737Z,1011.75
2019-01-04T04:27:24.569Z,1011.75
2019-01-04T04:28:34.621Z,1011.76
2019-01-04T04:29:44.676Z,1011.78
2019-01-04T04:30:54.481Z,1011.76
2019-01-04T04:32:04.056Z,1011.82
2019-01-04T04:33:14.118Z,1011.83
2019-01-04T04:34:23.931Z,1011.86
2019-01-04T04:35:33.750Z,1011.84
2019-01-04T04:36:43.801Z,1011.87
2019-01-04T04:37:53.859Z,1011.88
2019-01-04T04:39:04.364Z,1011.86
2019-01-04T04:40:14.443Z,1011.88
2019-01-04T04:41:24.506Z,1011.85
2019-01-04T04:42:34.316Z,1011.87
2019-01-04T04:43:44.119Z,1011.89
2019-01-04T04:44:54.161Z,1011.93
2019-01-04T04:46:04.228Z,1011.86
2019-01-04T04:47:14.303Z,1011.95
2019-01-04T04:48:24.106Z,1011.88
2019-01-04T04:49:34.183Z,1011.93
2019-01-04T04:50:44.272Z,1011.91
2019-01-04T04:51:54.342Z,1011.9
2019-01-04T04:53:04.382Z,1011.95
2019-01-04T04:54:14.456Z,1011.88
2019-01-04T04:55:24.521Z,1011.93
2019-01-04T04:56:34.574Z,1011.92
2019-01-04T04:57:44.660Z,1011.9
2019-01-04T04:58:54.719Z,1011.9
2019-01-04T05:00:04.646Z,1011.89
2019-01-04T05:01:15.419Z,1011.91
2019-01-04T05:02:25.525Z,1011.93
2019-01-04T05:03:35.312Z,1011.9
2019-01-04T05:04:45.382Z,1011.95
2019-01-04T05:05:55.197Z,1011.94
2019-01-04T05:07:05.256Z,1011.94
2019-01-04T05:08:14.834Z,1011.91
2019-01-04T05:09:24.919Z,1011.94
2019-01-04T05:10:34.725Z,1011.97
2019-01-04T05:11:44.525Z,1011.93
2019-01-04T05:12:54.601Z,1011.99
2019-01-04T05:14:04.659Z,1011.99
2019-01-04T05:15:14.482Z,1011.93
2019-01-04T05:16:24.551Z,1011.91
2019-01-04T05:17:34.694Z,1012.12
2019-01-04T05:18:44.762Z,1011.93
2019-01-04T05:19:54.856Z,1012.06
2019-01-04T05:21:04.909Z,1011.97
2019-01-04T05:22:14.975Z,1012.01
2019-01-04T05:23:25.035Z,1011.97
2019-01-04T05:24:35.103Z,1011.96
2019-01-04T05:25:45.196Z,1012.07
2019-01-04T05:26:55.255Z,1012.07
2019-01-04T05:28:05.057Z,1012.07
2019-01-04T05:29:14.861Z,1012.09
2019-01-04T05:30:24.742Z,1012.08
2019-01-04T05:31:34.802Z,1012.1
2019-01-04T05:32:44.866Z,1012.15
2019-01-04T05:33:54.957Z,1012.08
2019-01-04T05:35:04.751Z,1012.14
2019-01-04T05:36:14.818Z,1012.11
2019-01-04T05:37:24.876Z,1012.06
2019-01-04T05:38:34.685Z,1012.13
2019-01-04T05:39:44.814Z,1012.11
2019-01-04T05:40:54.887Z,1012.1
2019-01-04T05:42:04.957Z,1012.11
2019-01-04T05:43:15.012Z,1012.14
2019-01-04T05:44:25.106Z,1012.15
2019-01-04T05:45:35.174Z,1012.21
2019-01-04T05:46:45.241Z,1012.22
2019-01-04T05:47:55.319Z,1012.27
2019-01-04T05:49:05.430Z,1012.21
2019-01-04T05:50:15.251Z,1012.2
2019-01-04T05:51:25.320Z,1012.25
2019-01-04T05:52:36.363Z,1012.3
2019-01-04T05:53:46.152Z,1012.25
2019-01-04T05:54:55.697Z,1012.22
2019-01-04T05:56:05.758Z,1012.29
2019-01-04T05:57:15.810Z,1012.29
2019-01-04T05:58:25.596Z,1012.23
2019-01-04T05:59:35.675Z,1012.33
2019-01-04T06:00:45.478Z,1012.33
2019-01-04T06:01:55.547Z,1012.33
2019-01-04T06:03:05.623Z,1012.38
2019-01-04T06:04:15.724Z,1012.34
2019-01-04T06:05:25.792Z,1012.32
2019-01-04T06:06:35.850Z,1012.38
2019-01-04T06:07:45.919Z,1012.37
2019-01-04T06:08:55.730Z,1012.4
2019-01-04T06:10:05.784Z,1012.43
2019-01-04T06:11:15.835Z,1012.43
2019-01-04T06:12:25.881Z,1012.41
2019-01-04T06:13:35.948Z,1012.42
2019-01-04T06:14:45.997Z,1012.51
2019-01-04T06:15:56.065Z,1012.47
2019-01-04T06:17:05.865Z,1012.5
2019-01-04T06:18:15.924Z,1012.56
2019-01-04T06:19:25.703Z,1012.5
2019-01-04T06:20:35.766Z,1012.55
2019-01-04T06:21:46.052Z,1012.55
2019-01-04T06:22:55.892Z,1012.56
2019-01-04T06:24:07.569Z,1012.63
2019-01-04T06:25:17.622Z,1012.64
2019-01-04T06:26:27.696Z,1012.63
2019-01-04T06:27:37.765Z,1012.59
2019-01-04T06:28:47.820Z,1012.6
2019-01-04T06:29:57.871Z,1012.64
2019-01-04T06:31:08.012Z,1012.61
2019-01-04T06:32:17.805Z,1012.6
2019-01-04T06:33:27.862Z,1012.66
2019-01-04T06:34:37.928Z,1012.66
2019-01-04T06:35:47.995Z,1012.7
2019-01-04T06:36:58.062Z,1012.66
2019-01-04T06:38:07.941Z,1012.69
2019-01-04T06:39:17.753Z,1012.74
2019-01-04T06:40:27.795Z,1012.79
2019-01-04T06:41:37.592Z,1012.78
2019-01-04T06:42:47.418Z,1012.81
2019-01-04T06:43:57.490Z,1012.82
2019-01-04T06:45:08.383Z,1012.86
2019-01-04T06:46:18.458Z,1012.86
2019-01-04T06:47:28.511Z,1012.8
2019-01-04T06:48:38.048Z,1012.86
2019-01-04T06:49:48.124Z,1012.88
2019-01-04T06:50:57.700Z,1012.86
2019-01-04T06:52:07.767Z,1012.97
2019-01-04T06:53:17.586Z,1012.88
2019-01-04T06:54:27.653Z,1012.94
2019-01-04T06:55:37.713Z,1012.95
2019-01-04T06:56:47.792Z,1012.98
2019-01-04T06:57:57.854Z,1012.96
2019-01-04T06:59:08.030Z,1012.94
2019-01-04T07:00:17.855Z,1012.95
2019-01-04T07:01:27.899Z,1012.95
2019-01-04T07:02:37.976Z,1012.96
2019-01-04T07:03:47.789Z,1012.93
2019-01-04T07:04:57.866Z,1012.99
2019-01-04T07:06:07.913Z,1012.92
2019-01-04T07:07:17.728Z,1013
2019-01-04T07:08:27.790Z,1013.06
2019-01-04T07:09:37.591Z,1013.08
2019-01-04T07:10:47.701Z,1013.06
2019-01-04T07:11:57.771Z,1013.06
2019-01-04T07:13:07.567Z,1013.11
2019-01-04T07:14:17.370Z,1013.05
2019-01-04T07:15:27.433Z,1013.09
2019-01-04T07:16:37.487Z,1013.09
2019-01-04T07:17:47.269Z,1013.13
2019-01-04T07:18:57.387Z,1013.15
2019-01-04T07:20:07.457Z,1013.17
2019-01-04T07:21:17.264Z,1013.18
2019-01-04T07:22:27.054Z,1013.15
2019-01-04T07:23:37.122Z,1013.2
2019-01-04T07:24:47.190Z,1013.2
2019-01-04T07:25:57.280Z,1013.21
2019-01-04T07:27:07.073Z,1013.22
2019-01-04T07:28:16.873Z,1013.21
2019-01-04T07:29:26.413Z,1013.24
2019-01-04T07:30:36.208Z,1013.28
2019-01-04T07:31:46.266Z,1013.24
2019-01-04T07:32:56.326Z,1013.29
2019-01-04T07:34:06.431Z,1013.36
2019-01-04T07:35:16.521Z,1013.27
2019-01-04T07:36:26.327Z,1013.27
2019-01-04T07:37:36.112Z,1013.31
2019-01-04T07:38:46.181Z,1013.31
2019-01-04T07:39:56.229Z,1013.31
2019-01-04T07:41:06.284Z,1013.32
2019-01-04T07:42:16.365Z,1013.37
2019-01-04T07:43:26.392Z,1013.34
2019-01-04T07:44:36.459Z,1013.33
2019-01-04T07:45:46.522Z,1013.29
2019-01-04T07:46:56.607Z,1013.3
2019-01-04T07:48:06.694Z,1013.31
2019-01-04T07:49:16.745Z,1013.33
2019-01-04T07:50:26.546Z,1013.36
2019-01-04T07:51:36.379Z,1013.39
2019-01-04T07:52:46.454Z,1013.38
2019-01-04T07:53:56.506Z,1013.32
2019-01-04T07:55:06.568Z,1013.34
2019-01-04T07:56:16.626Z,1013.33
2019-01-04T07:57:26.695Z,1013.37
2019-01-04T07:58:36.759Z,1013.43
2019-01-04T07:59:46.582Z,1013.37
2019-01-04T08:00:56.381Z,1013.4
2019-01-04T08:02:06.452Z,1013.43
2019-01-04T08:03:16.560Z,1013.35
2019-01-04T08:04:26.609Z,1013.42
2019-01-04T08:05:36.175Z,1013.46
2019-01-04T08:06:46.222Z,1013.42
2019-01-04T08:07:56.022Z,1013.37
2019-01-04T08:09:06.186Z,1013.43
2019-01-04T08:10:16.238Z,1013.47
2019-01-04T08:11:26.305Z,1013.47
2019-01-04T08:12:36.109Z,1013.43
2019-01-04T08:13:45.938Z,1013.45
2019-01-04T08:14:55.734Z,1013.48
2019-01-04T08:16:05.790Z,1013.51
2019-01-04T08:17:15.862Z,1013.51
2019-01-04T08:18:25.922Z,1013.48
2019-01-04T08:19:35.994Z,1013.56
2019-01-04T08:20:46.043Z,1013.48
2019-01-04T08:21:56.102Z,1013.55
2019-01-04T08:23:06.172Z,1013.6
2019-01-04T08:24:16.251Z,1013.63
2019-01-04T08:25:26.322Z,1013.57
2019-01-04T08:26:36.449Z,1013.61
2019-01-04T08:27:45.983Z,1013.62
2019-01-04T08:28:55.796Z,1013.65
2019-01-04T08:30:05.861Z,1013.53
2019-01-04T08:31:15.680Z,1013.57
2019-01-04T08:32:25.860Z,1013.57
2019-01-04T08:33:35.948Z,1013.56
2019-01-04T08:34:46.019Z,1013.56
2019-01-04T08:35:56.060Z,1013.53
2019-01-04T08:37:07.427Z,1013.52
2019-01-04T08:38:17.560Z,1013.48
2019-01-04T08:39:27.643Z,1013.6
2019-01-04T08:40:37.704Z,1013.48
2019-01-04T08:41:47.499Z,1013.52
2019-01-04T08:42:57.558Z,1013.5
2019-01-04T08:44:07.679Z,1013.5
2019-01-04T08:45:17.743Z,1013.48
2019-01-04T08:46:27.822Z,1013.5
2019-01-04T08:47:37.889Z,1013.47
2019-01-04T08:48:47.960Z,1013.44
2019-01-04T08:49:58.105Z,1013.41
2019-01-04T08:51:08.166Z,1013.51
2019-01-04T08:52:18.241Z,1013.42
2019-01-04T08:53:28.299Z,1013.5
2019-01-04T08:54:38.382Z,1013.44
2019-01-04T08:55:48.467Z,1013.39
2019-01-04T08:56:58.516Z,1013.39
2019-01-04T08:58:09.978Z,1013.47
2019-01-04T08:59:20.039Z,1013.46
2019-01-04T09:00:30.117Z,1013.5
2019-01-04T09:01:39.927Z,1013.47
2019-01-04T09:02:50.006Z,1013.55
2019-01-04T09:04:00.322Z,1013.37
2019-01-04T09:05:10.410Z,1013.54
2019-01-04T09:06:20.218Z,1013.52
2019-01-04T09:07:30.293Z,1013.53
2019-01-04T09:08:40.347Z,1013.53
2019-01-04T09:09:50.423Z,1013.48
2019-01-04T09:11:00.503Z,1013.44
2019-01-04T09:12:10.566Z,1013.44
2019-01-04T09:13:20.625Z,1013.48
2019-01-04T09:14:30.701Z,1013.44
2019-01-04T09:15:40.528Z,1013.41
2019-01-04T09:16:50.587Z,1013.39
2019-01-04T09:18:00.674Z,1013.43
2019-01-04T09:19:10.760Z,1013.45
2019-01-04T09:20:20.807Z,1013.39
2019-01-04T09:21:30.911Z,1013.42
2019-01-04T09:22:40.985Z,1013.46
2019-01-04T09:23:51.063Z,1013.47
2019-01-04T09:25:01.132Z,1013.47
2019-01-04T09:26:11.244Z,1013.45
2019-01-04T09:27:21.310Z,1013.38
2019-01-04T09:28:31.400Z,1013.39
2019-01-04T09:29:41.484Z,1013.42
2019-01-04T09:30:51.292Z,1013.38
2019-01-04T09:32:01.656Z,1013.34
2019-01-04T09:33:11.210Z,1013.35
2019-01-04T09:34:21.283Z,1013.3
2019-01-04T09:35:31.090Z,1013.28
2019-01-04T09:36:41.149Z,1013.25
2019-01-04T09:37:51.226Z,1013.33
2019-01-04T09:39:03.334Z,1013.21
2019-01-04T09:40:13.508Z,1013.22
2019-01-04T09:41:23.558Z,1013.19
2019-01-04T09:42:33.622Z,1013.16
2019-01-04T09:43:43.748Z,1013.14
2019-01-04T09:44:53.822Z,1013.14
2019-01-04T09:46:03.740Z,1013.1
2019-01-04T09:47:13.809Z,1013.13
2019-01-04T09:48:23.883Z,1013.21
2019-01-04T09:49:33.952Z,1013.18
2019-01-04T09:50:44.060Z,1013.19
2019-01-04T09:51:54.134Z,1013.15
2019-01-04T09:53:04.184Z,1013.13
2019-01-04T09:54:14.232Z,1013.07
2019-01-04T09:55:24.331Z,1013
2019-01-04T09:56:34.440Z,1013.01
2019-01-04T09:57:44.508Z,1012.96
2019-01-04T09:58:54.586Z,1012.94
2019-01-04T10:00:05.058Z,1012.99
2019-01-04T10:01:15.823Z,1012.95
2019-01-04T10:02:25.645Z,1012.94
2019-01-04T10:03:35.480Z,1012.93
2019-01-04T10:04:45.548Z,1012.9
2019-01-04T10:05:55.627Z,1012.87
2019-01-04T10:07:05.725Z,1012.9
2019-01-04T10:08:15.805Z,1012.87
2019-01-04T10:09:25.656Z,1012.89
2019-01-04T10:10:35.727Z,1012.89
2019-01-04T10:11:45.773Z,1012.87
2019-01-04T10:12:55.837Z,1012.89
2019-01-04T10:14:05.655Z,1012.85
2019-01-04T10:15:15.795Z,1012.81
2019-01-04T10:16:25.900Z,1012.83
2019-01-04T10:17:35.985Z,1012.72
2019-01-04T10:18:46.069Z,1012.79
2019-01-04T10:19:57.273Z,1012.84
2019-01-04T10:21:07.799Z,1012.81
2019-01-04T10:22:17.867Z,1012.77
2019-01-04T10:23:27.937Z,1012.73
2019-01-04T10:24:37.985Z,1012.77
2019-01-04T10:25:48.053Z,1012.7
2019-01-04T10:26:57.616Z,1012.75
2019-01-04T10:28:07.683Z,1012.66
2019-01-04T10:29:17.504Z,1012.69
2019-01-04T10:30:27.586Z,1012.66
2019-01-04T10:31:37.656Z,1012.65
2019-01-04T10:32:47.765Z,1012.63
2019-01-04T10:33:57.636Z,1012.67
2019-01-04T10:35:10.544Z,1012.65
2019-01-04T10:36:20.830Z,1012.6
2019-01-04T10:37:30.919Z,1012.54
2019-01-04T10:38:40.476Z,1012.58
2019-01-04T10:39:50.548Z,1012.55
2019-01-04T10:41:00.358Z,1012.55
2019-01-04T10:42:10.176Z,1012.46
2019-01-04T10:43:20.269Z,1012.5
2019-01-04T10:44:30.390Z,1012.43
2019-01-04T10:45:40.455Z,1012.45
2019-01-04T10:46:50.287Z,1012.41
2019-01-04T10:48:00.345Z,1012.37
2019-01-04T10:49:10.428Z,1012.38
2019-01-04T10:50:20.506Z,1012.34
2019-01-04T10:51:30.575Z,1012.36
2019-01-04T10:52:40.648Z,1012.27
2019-01-04T10:53:50.739Z,1012.3
2019-01-04T10:55:02.659Z,1012.27
2019-01-04T10:56:12.801Z,1012.29
2019-01-04T10:57:22.889Z,1012.24
2019-01-04T10:58:32.950Z,1012.21
2019-01-04T10:59:43.038Z,1012.23
2019-01-04T11:00:53.126Z,1012.11
2019-01-04T11:02:02.985Z,1012.14
2019-01-04T11:03:12.536Z,1012.09
2019-01-04T11:04:22.635Z,1012.07
2019-01-04T11:05:32.701Z,1012.08
2019-01-04T11:06:42.763Z,1012.03
2019-01-04T11:07:52.817Z,1011.99
2019-01-04T11:09:02.384Z,1011.99
2019-01-04T11:10:12.192Z,1012
2019-01-04T11:11:22.283Z,1012
2019-01-04T11:12:32.395Z,1011.92
2019-01-04T11:13:42.243Z,1011.94
2019-01-04T11:14:52.090Z,1011.91
2019-01-04T11:16:02.192Z,1012.02
2019-01-04T11:17:12.260Z,1011.87
2019-01-04T11:18:22.344Z,1011.88
2019-01-04T11:19:32.464Z,1011.9
2019-01-04T11:20:42.573Z,1011.82
2019-01-04T11:21:52.625Z,1011.89
2019-01-04T11:23:02.697Z,1011.82
2019-01-04T11:24:12.606Z,1011.86
2019-01-04T11:25:22.467Z,1011.76
2019-01-04T11:26:32.287Z,1011.69
2019-01-04T11:27:42.379Z,1011.74
2019-01-04T11:28:52.449Z,1011.69
2019-01-04T11:30:02.539Z,1011.68
2019-01-04T11:31:12.365Z,1011.65
2019-01-04T11:32:22.436Z,1011.66
2019-01-04T11:33:32.532Z,1011.56
2019-01-04T11:34:43.535Z,1011.58
2019-01-04T11:35:53.637Z,1011.58
2019-01-04T11:37:03.750Z,1011.58
2019-01-04T11:38:13.842Z,1011.58
2019-01-04T11:39:23.706Z,1011.64
2019-01-04T11:40:33.808Z,1011.57
2019-01-04T11:41:43.622Z,1011.61
2019-01-04T11:42:53.717Z,1011.67
2019-01-04T11:44:03.810Z,1011.56
2019-01-04T11:45:13.853Z,1011.61
2019-01-04T11:46:23.663Z,1011.58
2019-01-04T11:47:33.477Z,1011.49
2019-01-04T11:48:43.304Z,1011.48
2019-01-04T11:49:53.390Z,1011.51
2019-01-04T11:51:04.177Z,1011.42
2019-01-04T11:52:14.234Z,1011.36
2019-01-04T11:53:24.068Z,1011.35
2019-01-04T11:54:34.146Z,1011.39
2019-01-04T11:55:44.252Z,1011.39
2019-01-04T11:56:54.330Z,1011.4
2019-01-04T11:58:04.411Z,1011.43
2019-01-04T11:59:14.513Z,1011.38
2019-01-04T12:00:24.595Z,1011.34
2019-01-04T12:01:34.652Z,1011.34
2019-01-04T12:02:44.459Z,1011.36
2019-01-04T12:03:54.258Z,1011.38
2019-01-04T12:05:05.144Z,1011.38
2019-01-04T12:06:15.212Z,1011.28
2019-01-04T12:07:25.030Z,1011.4
2019-01-04T12:08:35.100Z,1011.39
2019-01-04T12:09:45.227Z,1011.41
2019-01-04T12:10:55.035Z,1011.33
2019-01-04T12:12:04.838Z,1011.33
2019-01-04T12:13:14.894Z,1011.23
2019-01-04T12:14:24.727Z,1011.24
2019-01-04T12:15:34.788Z,1011.17
2019-01-04T12:16:44.867Z,1011.25
2019-01-04T12:17:54.925Z,1011.23
2019-01-04T12:19:05.325Z,1011.19
2019-01-04T12:20:15.162Z,1011.17
2019-01-04T12:21:25.273Z,1011.15
2019-01-04T12:22:34.819Z,1011.17
2019-01-04T12:23:44.879Z,1011.1
2019-01-04T12:24:54.726Z,1011.12
2019-01-04T12:26:04.801Z,1011.09
2019-01-04T12:27:14.724Z,1011.07
2019-01-04T12:28:24.815Z,1011.1
2019-01-04T12:29:34.903Z,1011.05
2019-01-04T12:30:44.975Z,1010.96
2019-01-04T12:31:54.774Z,1010.98
2019-01-04T12:33:04.827Z,1010.99
2019-01-04T12:34:16.678Z,1010.98
2019-01-04T12:35:26.873Z,1010.92
2019-01-04T12:36:36.670Z,1010.96
2019-01-04T12:37:46.484Z,1010.96
2019-01-04T12:38:56.544Z,1010.95
2019-01-04T12:40:06.617Z,1010.89
2019-01-04T12:41:16.690Z,1010.9
2019-01-04T12:42:26.754Z,1010.93
2019-01-04T12:43:36.876Z,1010.87
2019-01-04T12:44:52.921Z,1010.83
2019-01-04T12:46:02.620Z,1010.82
2019-01-04T12:47:12.700Z,1010.85
2019-01-04T12:48:23.870Z,1010.78
2019-01-04T12:49:33.756Z,1010.72
2019-01-04T12:50:43.806Z,1010.74
2019-01-04T12:51:53.879Z,1010.72
2019-01-04T12:53:03.718Z,1010.68
2019-01-04T12:54:13.776Z,1010.75
2019-01-04T12:55:23.845Z,1010.65
2019-01-04T12:56:33.665Z,1010.61
2019-01-04T12:57:43.729Z,1010.65
2019-01-04T12:58:53.798Z,1010.6
2019-01-04T13:00:03.530Z,1010.7
2019-01-04T13:01:13.844Z,1010.58
2019-01-04T13:02:23.899Z,1010.62
2019-01-04T13:03:33.694Z,1010.63
2019-01-04T13:04:43.752Z,1010.6
2019-01-04T13:05:53.818Z,1010.62
2019-01-04T13:07:03.892Z,1010.69
2019-01-04T13:08:13.788Z,1010.64
2019-01-04T13:09:23.854Z,1010.63
2019-01-04T13:10:33.690Z,1010.63
2019-01-04T13:11:43.759Z,1010.61
2019-01-04T13:12:53.567Z,1010.71
2019-01-04T13:14:03.652Z,1010.66
2019-01-04T13:15:13.194Z,1010.61
2019-01-04T13:16:23.252Z,1010.64
2019-01-04T13:17:33.311Z,1010.65
2019-01-04T13:18:43.440Z,1010.66
2019-01-04T13:19:53.504Z,1010.65
2019-01-04T13:21:03.571Z,1010.63
2019-01-04T13:22:13.402Z,1010.64
2019-01-04T13:23:23.468Z,1010.63
2019-01-04T13:24:33.542Z,1010.64
2019-01-04T13:25:43.587Z,1010.61
2019-01-04T13:26:53.391Z,1010.56
2019-01-04T13:28:03.438Z,1010.49
2019-01-04T13:29:13.519Z,1010.58
2019-01-04T13:30:23.383Z,1010.52
2019-01-04T13:31:33.441Z,1010.49
2019-01-04T13:32:43.263Z,1010.52
2019-01-04T13:33:53.069Z,1010.47
2019-01-04T13:35:02.897Z,1010.44
2019-01-04T13:36:12.984Z,1010.44
2019-01-04T13:37:22.791Z,1010.45
2019-01-04T13:38:32.852Z,1010.38
2019-01-04T13:39:42.912Z,1010.38
2019-01-04T13:40:52.990Z,1010.41
2019-01-04T13:42:03.557Z,1010.39
2019-01-04T13:43:13.621Z,1010.34
2019-01-04T13:44:23.416Z,1010.38
2019-01-04T13:45:33.243Z,1010.43
2019-01-04T13:46:44.142Z,1010.37
2019-01-04T13:47:53.986Z,1010.35
2019-01-04T13:49:04.073Z,1010.4
2019-01-04T13:50:13.879Z,1010.38
2019-01-04T13:51:23.969Z,1010.45
2019-01-04T13:52:34.038Z,1010.42
2019-01-04T13:53:44.099Z,1010.45
2019-01-04T13:54:54.155Z,1010.42
2019-01-04T13:56:03.982Z,1010.44
2019-01-04T13:57:13.820Z,1010.38
2019-01-04T13:58:23.901Z,1010.33
2019-01-04T13:59:33.980Z,1010.38
2019-01-04T14:00:44.039Z,1010.28
2019-01-04T14:01:54.226Z,1010.29
2019-01-04T14:03:04.287Z,1010.24
2019-01-04T14:04:14.350Z,1010.24
2019-01-04T14:05:24.438Z,1010.19
2019-01-04T14:06:34.486Z,1010.22
2019-01-04T14:07:44.565Z,1010.19
2019-01-04T14:08:55.747Z,1010.22
2019-01-04T14:10:07.124Z,1010.23
2019-01-04T14:11:17.190Z,1010.24
2019-01-04T14:12:27.288Z,1010.21
2019-01-04T14:13:37.369Z,1010.15
2019-01-04T14:14:47.429Z,1010.18
2019-01-04T14:15:57.544Z,1010.15
2019-01-04T14:17:07.636Z,1010.14
2019-01-04T14:18:17.982Z,1010.09
2019-01-04T14:19:28.066Z,1010.04
2019-01-04T14:20:38.125Z,1009.99
2019-01-04T14:21:48.186Z,1009.97
2019-01-04T14:22:58.232Z,1009.95
2019-01-04T14:24:08.037Z,1009.95
2019-01-04T14:25:18.111Z,1009.98
2019-01-04T14:26:28.178Z,1009.93
2019-01-04T14:27:37.998Z,1009.86
2019-01-04T14:28:48.068Z,1009.85
2019-01-04T14:29:57.861Z,1009.81
2019-01-04T14:31:07.956Z,1009.77
2019-01-04T14:32:18.026Z,1009.84
2019-01-04T14:33:27.833Z,1009.8
2019-01-04T14:34:37.906Z,1009.78
2019-01-04T14:35:47.977Z,1009.74
2019-01-04T14:36:58.050Z,1009.8
2019-01-04T14:38:07.866Z,1009.76
2019-01-04T14:39:17.937Z,1009.7
2019-01-04T14:40:28.503Z,1009.7
2019-01-04T14:41:38.631Z,1009.72